x

Dunkirk, Ny (dbln6) Weather Station

7:00pm - Tue 28th Mar 2017 All times are CDT. -5 hours from GMT.

  • Wind
    5mph, 6mph gusts
  • Air Temp 44°f
  • Sea Pressure 1019.1mb
  • Dunkirk, Ny
  • Dunkirk, Ny

More Historic Weather Station data

Upgrade to MSW Pro to gain access to the past 30 days of data for over 8000 Wavebouys and Weather Stations around the globe.

Join Pro

Comparision Forecast

View Surf forecast
   
Tue 03/28 7:00pm 5 6 mph 1019.1mb 44f
6:00pm 5 6 mph 1018.4mb 43f
5:00pm 1
mph
1017.5mb 42f
4:00pm  -  1 mph 1017mb 42f
3:00pm 1 2 mph 1016.4mb 39f
2:00pm 5 6 mph 1016mb 40f
1:00pm 10
mph
1015.6mb 38f
12:00pm 8 9 mph 1015.1mb 38f
11:00am 8 9 mph 1015.1mb 38f
10:00am 11
mph
1014.6mb 39f
9:00am  -  1 mph 1014.1mb 44f
8:00am 2
mph
1013.9mb 42f
7:00am 2 3 mph 1013.6mb 43f
6:00am  -  1 mph 1013mb 44f
5:00am 2
mph
1012.4mb 41f
4:00am 7
mph
1011.7mb 40f
3:00am 7 8 mph 1011.8mb 43f
2:00am 1 2 mph 1012.1mb 46f
1:00am 7 8 mph 1012.2mb 51f
12:00am 7 8 mph 1012.6mb 51f
Mon 03/27 11:00pm 9 11 mph 1012.9mb 50f
10:00pm 7 9 mph 1013.4mb 51f
9:00pm 5 6 mph 1013.9mb 51f
8:00pm 7 8 mph 1013.8mb 49f
7:00pm 8 9 mph 1013.4mb 45f
6:00pm 13 14 mph 1013.2mb 47f
5:00pm 15 17 mph 1013.2mb 45f
4:00pm 14 15 mph 1013.2mb 46f
3:00pm 16 17 mph 1013.4mb 46f
2:00pm 20 21 mph 1013.8mb 45f
1:00pm 21 23 mph 1013.8mb 43f
12:00pm 23 25 mph 1013.2mb 44f
11:00am 23 26 mph 1013.2mb 44f
10:00am 21 22 mph 1013.1mb 46f
9:00am 5 8 mph 1013mb 52f
8:00am 8 13 mph 1012.7mb 52f
7:00am 10 15 mph 1012.8mb 52f
6:00am 10 17 mph 1012.4mb 51f
5:00am 11 16 mph 1011.9mb 51f
4:00am 13 21 mph 1011.5mb 50f
3:00am 14 18 mph 1011.8mb 51f
2:00am 17 22 mph 1011.8mb 51f
1:00am 13 21 mph 1012.3mb 51f
12:00am 15 23 mph 1012.9mb 51f
Sun 03/26 11:00pm 9 13 mph 1014.3mb 51f
10:00pm 7 13 mph 1014.8mb 50f
9:00pm 14 24 mph 1014.3mb 51f
8:00pm 11 16 mph 1014.9mb 53f
7:00pm 9 14 mph 1014.7mb 55f
6:00pm 5 7 mph 1015mb 57f
5:00pm 10 16 mph 1014.9mb 57f
4:00pm 10 13 mph 1014.9mb -
3:00pm 7 15 mph 1015.3mb -
2:00pm 9 20 mph 1015.9mb -
1:00pm 14 20 mph 1016.7mb -
12:00pm 10 17 mph 1018.1mb -
11:00am 9 16 mph 1019mb -
10:00am 8 10 mph 1019.5mb 37f
9:00am 9 10 mph 1019.6mb 37f
8:00am 8 10 mph 1020mb 37f
7:00am 11 13 mph 1020.2mb 37f
6:00am 14 16 mph 1020.4mb 36f
5:00am 15 17 mph 1020.9mb 36f
4:00am 23 25 mph 1020.4mb 36f
3:00am 22 25 mph 1021.1mb 37f
2:00am 20 21 mph 1021.9mb 36f
1:00am 22 24 mph 1022.5mb 36f
12:00am 18
mph
1023.1mb 37f
Sat 03/25 11:00pm 23 25 mph 1023.7mb 36f
10:00pm 28 31 mph 1023.9mb 36f
9:00pm 26 29 mph 1024.1mb 36f
8:00pm 25 26 mph 1024mb 37f
7:00pm 21 22 mph 1024.2mb 37f
6:00pm 24 25 mph 1024.3mb 37f
5:00pm 22 23 mph 1024.4mb 36f
4:00pm 26 29 mph 1024.2mb 36f
3:00pm 29 31 mph 1024.1mb 35f
2:00pm 23 25 mph 1024.4mb 35f
1:00pm 14 15 mph 1025mb 36f
12:00pm 22 23 mph 1025.3mb 35f
11:00am 25 28 mph 1024.3mb 35f
10:00am 22 25 mph 1023.9mb 35f
9:00am 18 21 mph 1023mb 36f
8:00am 18 21 mph 1021.9mb 36f
7:00am 17 20 mph 1020.8mb 37f
6:00am 16 17 mph 1019.9mb 37f
5:00am 13 14 mph 1019.6mb 37f
4:00am 11 13 mph 1019.4mb 37f
3:00am 10 11 mph 1019.5mb 38f
2:00am 13 14 mph 1019.5mb 37f